createdAt,value
2018-06-18T00:01:44.772Z,21.07
2018-06-18T00:04:12.538Z,20.96
2018-06-18T00:06:40.041Z,20.99
2018-06-18T00:09:07.493Z,20.96
2018-06-18T00:11:34.926Z,20.94
2018-06-18T00:14:02.366Z,20.81
2018-06-18T00:16:29.827Z,20.80
2018-06-18T00:18:57.284Z,20.79
2018-06-18T00:21:24.700Z,20.80
2018-06-18T00:23:52.094Z,20.83
2018-06-18T00:26:19.619Z,20.84
2018-06-18T00:28:47.136Z,20.86
2018-06-18T00:31:14.562Z,20.80
2018-06-18T00:33:42.965Z,20.74
2018-06-18T00:36:10.434Z,20.70
2018-06-18T00:38:37.856Z,20.69
2018-06-18T00:41:05.249Z,20.68
2018-06-18T00:43:32.679Z,20.66
2018-06-18T00:46:00.657Z,20.69
2018-06-18T00:48:28.080Z,20.66
2018-06-18T00:50:55.569Z,20.71
2018-06-18T00:53:23.117Z,20.73
2018-06-18T00:56:07.166Z,20.70
2018-06-18T00:58:34.655Z,20.66
2018-06-18T01:01:02.130Z,20.61
2018-06-18T01:03:29.564Z,20.60
2018-06-18T01:05:57.343Z,20.51
2018-06-18T01:08:25.016Z,20.52
2018-06-18T01:10:52.552Z,20.58
2018-06-18T01:13:20.001Z,20.65
2018-06-18T01:15:47.437Z,20.72
2018-06-18T01:18:14.933Z,20.82
2018-06-18T01:20:42.382Z,20.85
2018-06-18T01:23:09.822Z,20.85
2018-06-18T01:25:37.260Z,20.82
2018-06-18T01:28:04.760Z,20.88
2018-06-18T01:30:32.232Z,20.82
2018-06-18T01:32:59.638Z,20.84
2018-06-18T01:35:27.097Z,20.85
2018-06-18T01:37:54.670Z,20.91
2018-06-18T01:40:22.141Z,20.89
2018-06-18T01:42:49.699Z,20.89
2018-06-18T01:45:17.115Z,20.86
2018-06-18T01:47:44.818Z,20.84
2018-06-18T01:50:12.258Z,20.78
2018-06-18T01:52:39.720Z,20.76
2018-06-18T01:55:07.165Z,20.75
2018-06-18T01:57:34.679Z,20.85
2018-06-18T02:00:02.089Z,20.96
2018-06-18T02:02:29.555Z,21.05
2018-06-18T02:04:57.006Z,21.09
2018-06-18T02:07:24.533Z,21.00
2018-06-18T02:09:51.902Z,20.90
2018-06-18T02:12:19.358Z,20.82
2018-06-18T02:14:46.822Z,20.83
2018-06-18T02:17:14.341Z,20.84
2018-06-18T02:19:41.828Z,20.78
2018-06-18T02:22:09.257Z,20.71
2018-06-18T02:24:36.674Z,20.67
2018-06-18T02:27:04.125Z,20.63
2018-06-18T02:29:37.163Z,20.55
2018-06-18T02:32:10.276Z,20.52
2018-06-18T02:37:49.619Z,20.73
2018-06-18T02:40:17.144Z,20.70
2018-06-18T02:42:44.619Z,20.62
2018-06-18T02:45:12.103Z,20.68
2018-06-18T02:47:40.078Z,20.67
2018-06-18T02:50:07.519Z,20.62
2018-06-18T02:52:35.069Z,20.63
2018-06-18T02:55:02.519Z,20.62
2018-06-18T02:57:29.988Z,20.59
2018-06-18T02:59:57.418Z,20.53
2018-06-18T03:02:24.866Z,20.48
2018-06-18T03:04:52.323Z,20.42
2018-06-18T03:07:19.736Z,20.43
2018-06-18T03:09:47.182Z,20.44
2018-06-18T03:12:14.699Z,20.39
2018-06-18T03:14:42.252Z,20.36
2018-06-18T03:17:09.724Z,20.38
2018-06-18T03:22:51.814Z,20.57
2018-06-18T03:25:19.310Z,20.54
2018-06-18T03:30:41.089Z,20.57
2018-06-18T03:33:08.554Z,20.48
2018-06-18T03:35:37.898Z,20.43
2018-06-18T03:38:05.393Z,20.38
2018-06-18T03:40:32.831Z,20.34
2018-06-18T03:43:00.305Z,20.34
2018-06-18T03:45:27.734Z,20.35
2018-06-18T03:47:55.192Z,20.31
2018-06-18T03:50:22.678Z,20.30
2018-06-18T03:52:50.118Z,20.29
2018-06-18T03:55:17.653Z,20.22
2018-06-18T03:57:45.324Z,20.27
2018-06-18T04:00:12.751Z,20.31
2018-06-18T04:05:52.108Z,20.51
2018-06-18T04:08:19.533Z,20.52
2018-06-18T04:10:52.640Z,20.56
2018-06-18T04:13:20.101Z,20.59
2018-06-18T04:15:47.550Z,20.57
2018-06-18T04:18:15.014Z,20.46
2018-06-18T04:20:42.432Z,20.40
2018-06-18T04:23:09.924Z,20.35
2018-06-18T04:25:37.314Z,20.28
2018-06-18T04:28:04.771Z,20.32
2018-06-18T04:30:32.258Z,20.41
2018-06-18T04:32:59.717Z,20.50
2018-06-18T04:35:27.186Z,20.60
2018-06-18T04:37:54.715Z,20.69
2018-06-18T04:40:22.141Z,20.74
2018-06-18T04:42:49.623Z,20.85
2018-06-18T04:48:26.781Z,21.13
2018-06-18T04:50:57.828Z,21.16
2018-06-18T04:53:25.496Z,21.19
2018-06-18T04:55:52.939Z,21.19
2018-06-18T04:58:20.341Z,21.26
2018-06-18T05:00:47.811Z,21.29
2018-06-18T05:03:15.412Z,21.31
2018-06-18T05:05:42.945Z,21.37
2018-06-18T05:08:10.424Z,21.41
2018-06-18T05:10:37.854Z,21.54
2018-06-18T05:13:05.347Z,21.47
2018-06-18T05:15:32.754Z,21.44
2018-06-18T05:18:00.179Z,21.61
2018-06-18T05:20:27.661Z,21.82
2018-06-18T05:22:55.134Z,21.79
2018-06-18T05:25:22.710Z,21.53
2018-06-18T05:27:51.109Z,21.40
2018-06-18T05:30:18.564Z,21.46
2018-06-18T05:32:46.179Z,21.19
2018-06-18T05:35:13.628Z,21.08
2018-06-18T05:37:41.082Z,21.10
2018-06-18T05:40:08.505Z,21.07
2018-06-18T05:42:36.973Z,20.96
2018-06-18T05:45:04.413Z,21.01
2018-06-18T05:47:32.004Z,21.30
2018-06-18T05:49:59.498Z,21.56
2018-06-18T05:52:26.991Z,21.78
2018-06-18T05:54:54.552Z,21.96
2018-06-18T05:57:22.037Z,22.05
2018-06-18T05:59:49.629Z,22.05
2018-06-18T06:02:17.085Z,22.00
2018-06-18T06:04:44.652Z,21.97
2018-06-18T06:07:12.110Z,21.84
2018-06-18T06:09:39.785Z,21.79
2018-06-18T06:12:07.306Z,21.80
2018-06-18T06:14:34.908Z,21.77
2018-06-18T06:17:02.515Z,21.72
2018-06-18T06:19:29.929Z,21.83
2018-06-18T06:21:57.476Z,21.85
2018-06-18T06:24:24.968Z,21.91
2018-06-18T06:26:52.411Z,21.90
2018-06-18T06:29:19.865Z,21.94
2018-06-18T06:31:47.358Z,21.84
2018-06-18T06:34:15.027Z,21.78
2018-06-18T06:36:42.508Z,21.92
2018-06-18T06:39:10.091Z,21.92
2018-06-18T06:41:38.232Z,22.07
2018-06-18T06:44:06.595Z,22.24
2018-06-18T06:46:34.036Z,22.06
2018-06-18T06:49:01.553Z,22.42
2018-06-18T06:51:29.214Z,22.78
2018-06-18T06:53:56.669Z,22.82
2018-06-18T06:56:24.225Z,22.90
2018-06-18T06:58:51.731Z,22.99
2018-06-18T07:01:19.253Z,23.05
2018-06-18T07:03:47.382Z,22.93
2018-06-18T07:06:15.582Z,23.12
2018-06-18T07:08:43.209Z,23.14
2018-06-18T07:11:10.694Z,22.92
2018-06-18T07:13:38.527Z,23.04
2018-06-18T07:16:05.845Z,23.21
2018-06-18T07:18:33.274Z,23.21
2018-06-18T07:21:00.714Z,23.38
2018-06-18T07:23:28.514Z,23.72
2018-06-18T07:25:56.015Z,24.26
2018-06-18T07:28:23.591Z,24.53
2018-06-18T07:30:51.044Z,24.31
2018-06-18T07:33:18.811Z,24.38
2018-06-18T07:35:46.237Z,24.00
2018-06-18T07:38:13.683Z,24.28
2018-06-18T07:40:41.207Z,24.66
2018-06-18T07:43:08.615Z,24.97
2018-06-18T07:45:36.382Z,25.01
2018-06-18T07:48:04.429Z,24.84
2018-06-18T07:50:31.863Z,25.08
2018-06-18T07:52:59.355Z,25.17
2018-06-18T07:55:27.043Z,24.78
2018-06-18T07:57:54.662Z,25.04
2018-06-18T08:00:22.240Z,25.68
2018-06-18T08:02:49.708Z,25.73
2018-06-18T08:05:17.608Z,25.69
2018-06-18T08:07:45.081Z,25.73
2018-06-18T08:10:12.633Z,26.03
2018-06-18T08:12:40.115Z,26.28
2018-06-18T08:15:07.542Z,26.08
2018-06-18T08:17:35.022Z,26.34
2018-06-18T08:20:02.488Z,26.65
2018-06-18T08:22:30.021Z,26.55
2018-06-18T08:24:58.670Z,26.69
2018-06-18T08:27:26.119Z,26.47
2018-06-18T08:29:53.655Z,26.51
2018-06-18T08:32:21.180Z,26.62
2018-06-18T08:34:49.489Z,26.65
2018-06-18T08:37:16.944Z,26.67
2018-06-18T08:39:45.346Z,26.53
2018-06-18T08:42:12.837Z,26.74
2018-06-18T08:44:40.243Z,26.89
2018-06-18T08:47:07.740Z,26.86
2018-06-18T08:49:35.194Z,26.80
2018-06-18T08:55:09.776Z,26.65
2018-06-18T09:00:50.267Z,26.37
2018-06-18T09:03:17.984Z,26.49
2018-06-18T09:05:45.477Z,26.52
2018-06-18T09:08:12.984Z,26.68
2018-06-18T09:10:40.445Z,26.90
2018-06-18T09:13:07.923Z,26.86
2018-06-18T09:15:35.356Z,26.80
2018-06-18T09:18:02.842Z,26.55
2018-06-18T09:20:30.596Z,26.66
2018-06-18T09:22:58.019Z,26.76
2018-06-18T09:25:25.514Z,26.72
2018-06-18T09:27:53.156Z,26.98
2018-06-18T09:30:20.620Z,26.88
2018-06-18T09:32:48.547Z,27.18
2018-06-18T09:35:16.316Z,27.51
2018-06-18T09:37:43.812Z,27.61
2018-06-18T09:40:10.746Z,27.57
2018-06-18T09:42:37.815Z,27.75
2018-06-18T09:45:04.812Z,27.48
2018-06-18T09:47:31.840Z,27.60
2018-06-18T09:50:04.578Z,27.38
2018-06-18T09:55:43.001Z,27.64
2018-06-18T09:58:15.806Z,27.97
2018-06-18T10:03:38.795Z,27.80
2018-06-18T10:06:05.845Z,27.75
2018-06-18T10:08:33.006Z,27.67
2018-06-18T10:11:00.016Z,27.42
2018-06-18T10:13:27.225Z,27.40
2018-06-18T10:15:54.177Z,27.39
2018-06-18T10:18:21.822Z,27.66
2018-06-18T10:20:48.764Z,27.83
2018-06-18T10:23:15.919Z,27.57
2018-06-18T10:25:42.961Z,27.62
2018-06-18T10:28:09.959Z,27.18
2018-06-18T10:30:36.905Z,27.08
2018-06-18T10:33:04.003Z,27.45
2018-06-18T10:38:43.434Z,28.09
2018-06-18T10:41:27.347Z,28.17
2018-06-18T10:43:54.745Z,27.66
2018-06-18T10:46:21.715Z,27.91
2018-06-18T10:48:48.709Z,27.78
2018-06-18T10:51:16.017Z,27.70
2018-06-18T10:53:43.060Z,27.80
2018-06-18T10:56:10.093Z,27.79
2018-06-18T10:58:37.271Z,27.97
2018-06-18T11:01:04.403Z,27.99
2018-06-18T11:03:31.534Z,27.37
2018-06-18T11:05:58.599Z,27.57
2018-06-18T11:08:25.723Z,27.87
2018-06-18T11:10:52.891Z,28.10
2018-06-18T11:13:19.866Z,28.10
2018-06-18T11:15:46.880Z,28.29
2018-06-18T11:18:30.605Z,28.35
2018-06-18T11:21:13.184Z,28.54
2018-06-18T11:23:55.973Z,28.75
2018-06-18T11:29:19.990Z,28.54
2018-06-18T11:31:46.976Z,28.62
2018-06-18T11:34:14.723Z,28.83
2018-06-18T11:36:41.801Z,28.78
2018-06-18T11:39:08.802Z,28.95
2018-06-18T11:41:35.776Z,28.90
2018-06-18T11:44:02.933Z,28.98
2018-06-18T11:46:30.379Z,29.07
2018-06-18T11:48:57.374Z,29.40
2018-06-18T11:51:24.370Z,29.25
2018-06-18T11:53:51.890Z,29.10
2018-06-18T11:56:19.348Z,29.21
2018-06-18T11:58:46.882Z,29.12
2018-06-18T12:01:19.959Z,29.10
2018-06-18T12:04:03.020Z,29.18
2018-06-18T12:09:29.589Z,29.54
2018-06-18T12:11:57.038Z,29.44
2018-06-18T12:14:24.477Z,29.23
2018-06-18T12:16:52.061Z,28.92
2018-06-18T12:19:19.444Z,29.03
2018-06-18T12:21:46.958Z,29.31
2018-06-18T12:24:14.408Z,29.49
2018-06-18T12:26:41.359Z,29.19
2018-06-18T12:29:09.023Z,28.74
2018-06-18T12:31:36.488Z,28.67
2018-06-18T12:34:04.118Z,28.73
2018-06-18T12:36:31.649Z,28.85
2018-06-18T12:41:32.913Z,29.06
2018-06-18T12:44:00.427Z,29.38
2018-06-18T12:49:40.815Z,29.27
2018-06-18T12:52:23.154Z,29.51
2018-06-18T12:57:43.740Z,29.60
2018-06-18T13:00:11.398Z,29.96
2018-06-18T13:02:39.192Z,29.84
2018-06-18T13:05:06.289Z,29.81
2018-06-18T13:07:33.765Z,29.86
2018-06-18T13:10:01.238Z,29.64
2018-06-18T13:12:28.687Z,29.52
2018-06-18T13:14:56.177Z,30.01
2018-06-18T13:17:23.188Z,30.00
2018-06-18T13:19:50.179Z,29.96
2018-06-18T13:22:17.835Z,30.26
2018-06-18T13:24:44.803Z,29.96
2018-06-18T13:27:12.255Z,29.99
2018-06-18T13:29:39.207Z,29.88
2018-06-18T13:32:06.648Z,29.93
2018-06-18T13:34:33.703Z,29.86
2018-06-18T13:37:01.223Z,29.81
2018-06-18T13:42:39.327Z,29.38
2018-06-18T13:45:21.257Z,29.51
2018-06-18T13:48:05.984Z,29.66
2018-06-18T13:50:33.054Z,29.82
2018-06-18T13:53:00.021Z,29.65
2018-06-18T13:55:26.970Z,29.53
2018-06-18T13:57:54.036Z,29.55
2018-06-18T14:00:21.319Z,29.82
2018-06-18T14:02:48.289Z,29.85
2018-06-18T14:05:15.313Z,29.62
2018-06-18T14:07:42.498Z,29.10
2018-06-18T14:10:09.507Z,29.08
2018-06-18T14:12:36.568Z,29.22
2018-06-18T14:15:03.597Z,29.36
2018-06-18T14:17:30.729Z,29.16
2018-06-18T14:19:57.914Z,29.10
2018-06-18T14:22:25.320Z,29.36
2018-06-18T14:24:52.336Z,29.33
2018-06-18T14:27:19.540Z,29.35
2018-06-18T14:29:46.590Z,29.38
2018-06-18T14:32:13.583Z,29.47
2018-06-18T14:34:46.226Z,29.32
2018-06-18T14:37:30.004Z,29.08
2018-06-18T14:39:57.015Z,28.76
2018-06-18T14:42:24.242Z,28.80
2018-06-18T14:44:51.108Z,29.02
2018-06-18T14:47:18.176Z,29.16
2018-06-18T14:49:45.212Z,29.07
2018-06-18T14:52:12.207Z,29.00
2018-06-18T14:54:39.215Z,28.96
2018-06-18T14:57:06.357Z,28.92
2018-06-18T14:59:33.405Z,29.18
2018-06-18T15:02:00.467Z,29.29
2018-06-18T15:04:27.599Z,29.31
2018-06-18T15:06:54.615Z,29.27
2018-06-18T15:09:22.452Z,29.37
2018-06-18T15:11:49.391Z,29.28
2018-06-18T15:14:16.355Z,29.03
2018-06-18T15:16:43.516Z,29.12
2018-06-18T15:19:10.590Z,29.13
2018-06-18T15:21:37.591Z,29.05
2018-06-18T15:24:04.619Z,28.92
2018-06-18T15:26:31.640Z,29.01
2018-06-18T15:28:58.760Z,29.01
2018-06-18T15:31:25.740Z,29.05
2018-06-18T15:33:52.778Z,28.97
2018-06-18T15:36:19.795Z,28.77
2018-06-18T15:38:46.787Z,28.82
2018-06-18T15:41:13.899Z,28.82
2018-06-18T15:43:40.929Z,28.88
2018-06-18T15:46:07.896Z,28.97
2018-06-18T15:48:34.994Z,28.87
2018-06-18T15:51:02.044Z,28.79
2018-06-18T15:53:29.047Z,28.85
2018-06-18T15:55:56.344Z,28.71
2018-06-18T15:58:23.444Z,28.62
2018-06-18T16:00:50.886Z,28.70
2018-06-18T16:03:17.900Z,28.50
2018-06-18T16:05:45.423Z,28.53
2018-06-18T16:08:12.850Z,28.64
2018-06-18T16:10:40.307Z,28.71
2018-06-18T16:13:07.766Z,28.59
2018-06-18T16:15:35.198Z,28.48
2018-06-18T16:18:02.653Z,28.44
2018-06-18T16:20:30.145Z,28.51
2018-06-18T16:22:57.635Z,28.43
2018-06-18T16:25:25.113Z,28.45
2018-06-18T16:27:52.754Z,28.40
2018-06-18T16:30:20.368Z,28.39
2018-06-18T16:32:47.980Z,28.42
2018-06-18T16:35:15.430Z,28.33
2018-06-18T16:37:43.024Z,28.47
2018-06-18T16:40:10.492Z,28.39
2018-06-18T16:42:38.062Z,28.30
2018-06-18T16:45:05.631Z,28.31
2018-06-18T16:47:33.061Z,28.47
2018-06-18T16:50:00.508Z,28.63
2018-06-18T16:52:28.187Z,28.58
2018-06-18T16:54:55.640Z,28.39
2018-06-18T16:57:23.511Z,28.40
2018-06-18T16:59:50.994Z,28.38
2018-06-18T17:02:18.489Z,28.32
2018-06-18T17:04:45.988Z,28.18
2018-06-18T17:07:13.669Z,28.25
2018-06-18T17:09:41.196Z,28.15
2018-06-18T17:12:08.661Z,28.24
2018-06-18T17:14:36.176Z,28.34
2018-06-18T17:17:03.739Z,28.31
2018-06-18T17:19:31.219Z,28.29
2018-06-18T17:21:58.873Z,28.22
2018-06-18T17:24:26.337Z,28.17
2018-06-18T17:26:53.948Z,28.11
2018-06-18T17:29:21.385Z,28.22
2018-06-18T17:31:48.993Z,28.28
2018-06-18T17:34:16.522Z,28.13
2018-06-18T17:36:43.945Z,27.82
2018-06-18T17:39:11.371Z,27.61
2018-06-18T17:41:38.853Z,27.63
2018-06-18T17:44:06.333Z,27.63
2018-06-18T17:46:33.837Z,27.71
2018-06-18T17:49:01.272Z,27.65
2018-06-18T17:51:28.747Z,27.62
2018-06-18T17:53:56.262Z,27.45
2018-06-18T17:56:23.831Z,27.43
2018-06-18T17:58:51.306Z,27.64
2018-06-18T18:01:18.759Z,27.61
2018-06-18T18:03:46.361Z,27.47
2018-06-18T18:06:13.852Z,27.18
2018-06-18T18:08:41.313Z,27.06
2018-06-18T18:11:08.810Z,26.95
2018-06-18T18:13:36.410Z,26.95
2018-06-18T18:16:04.386Z,27.02
2018-06-18T18:18:31.875Z,27.15
2018-06-18T18:20:59.307Z,27.22
2018-06-18T18:23:27.590Z,27.24
2018-06-18T18:25:55.042Z,27.25
2018-06-18T18:28:22.579Z,27.32
2018-06-18T18:30:50.060Z,27.30
2018-06-18T18:33:17.533Z,27.26
2018-06-18T18:35:44.952Z,27.06
2018-06-18T18:38:12.432Z,26.88
2018-06-18T18:40:39.924Z,26.74
2018-06-18T18:43:07.442Z,26.51
2018-06-18T18:45:34.982Z,26.34
2018-06-18T18:48:02.310Z,25.99
2018-06-18T18:50:29.800Z,25.81
2018-06-18T18:52:57.369Z,25.65
2018-06-18T18:58:28.670Z,25.43
2018-06-18T19:00:56.119Z,25.30
2018-06-18T19:03:23.649Z,25.13
2018-06-18T19:05:51.154Z,25.04
2018-06-18T19:08:18.799Z,24.96
2018-06-18T19:10:46.222Z,24.91
2018-06-18T19:13:13.702Z,24.88
2018-06-18T19:15:41.162Z,24.75
2018-06-18T19:18:08.750Z,24.65
2018-06-18T19:20:36.152Z,24.56
2018-06-18T19:23:04.848Z,24.49
2018-06-18T19:25:32.292Z,24.44
2018-06-18T19:27:59.790Z,24.48
2018-06-18T19:30:27.280Z,24.47
2018-06-18T19:32:54.755Z,24.37
2018-06-18T19:35:22.264Z,24.28
2018-06-18T19:37:49.735Z,24.17
2018-06-18T19:40:17.187Z,24.10
2018-06-18T19:42:44.665Z,24.04
2018-06-18T19:45:12.356Z,24.05
2018-06-18T19:47:39.918Z,23.96
2018-06-18T19:50:07.489Z,23.90
2018-06-18T19:52:34.933Z,23.81
2018-06-18T19:55:02.420Z,23.74
2018-06-18T19:57:29.926Z,23.72
2018-06-18T19:59:57.348Z,23.70
2018-06-18T20:02:24.806Z,23.69
2018-06-18T20:04:52.226Z,23.62
2018-06-18T20:07:19.719Z,23.60
2018-06-18T20:09:47.167Z,23.60
2018-06-18T20:12:14.627Z,23.58
2018-06-18T20:14:42.339Z,23.56
2018-06-18T20:17:09.794Z,23.56
2018-06-18T20:19:37.267Z,23.56
2018-06-18T20:22:04.761Z,23.57
2018-06-18T20:24:32.301Z,23.66
2018-06-18T20:26:59.843Z,23.69
2018-06-18T20:29:27.330Z,23.74
2018-06-18T20:31:54.961Z,23.68
2018-06-18T20:34:23.014Z,23.69
2018-06-18T20:36:50.518Z,23.60
2018-06-18T20:39:18.006Z,23.55
2018-06-18T20:41:45.477Z,23.41
2018-06-18T20:44:12.916Z,23.23
2018-06-18T20:46:40.435Z,23.21
2018-06-18T20:49:07.859Z,23.20
2018-06-18T20:51:35.344Z,23.24
2018-06-18T20:54:02.945Z,23.24
2018-06-18T20:56:30.377Z,23.22
2018-06-18T20:58:57.858Z,23.26
2018-06-18T21:01:25.263Z,23.24
2018-06-18T21:03:52.708Z,23.27
2018-06-18T21:06:21.341Z,23.17
2018-06-18T21:08:48.980Z,23.20
2018-06-18T21:11:16.428Z,23.20
2018-06-18T21:13:43.885Z,23.07
2018-06-18T21:16:11.320Z,22.99
2018-06-18T21:18:38.834Z,22.96
2018-06-18T21:21:06.274Z,22.92
2018-06-18T21:23:33.753Z,22.87
2018-06-18T21:26:01.168Z,22.88
2018-06-18T21:28:29.016Z,22.98
2018-06-18T21:30:56.516Z,23.01
2018-06-18T21:33:23.921Z,22.98
2018-06-18T21:35:51.389Z,22.99
2018-06-18T21:38:18.929Z,22.95
2018-06-18T21:40:46.468Z,22.94
2018-06-18T21:43:14.053Z,22.89
2018-06-18T21:45:41.575Z,22.84
2018-06-18T21:48:10.322Z,22.87
2018-06-18T21:50:37.944Z,22.77
2018-06-18T21:53:05.478Z,22.74
2018-06-18T21:55:33.989Z,22.69
2018-06-18T21:58:01.430Z,22.61
2018-06-18T22:00:28.883Z,22.63
2018-06-18T22:02:56.442Z,22.56
2018-06-18T22:05:43.961Z,22.46
2018-06-18T22:08:11.457Z,22.33
2018-06-18T22:10:39.012Z,22.27
2018-06-18T22:13:06.546Z,22.19
2018-06-18T22:15:34.007Z,22.18
2018-06-18T22:18:01.469Z,22.17
2018-06-18T22:20:28.906Z,22.15
2018-06-18T22:22:56.376Z,22.11
2018-06-18T22:25:23.854Z,22.10
2018-06-18T22:27:51.353Z,22.11
2018-06-18T22:30:18.866Z,22.08
2018-06-18T22:32:46.360Z,22.13
2018-06-18T22:35:13.928Z,22.09
2018-06-18T22:37:41.443Z,22.03
2018-06-18T22:40:09.099Z,22.02
2018-06-18T22:42:36.532Z,21.98
2018-06-18T22:45:04.127Z,21.96
2018-06-18T22:47:31.591Z,21.97
2018-06-18T22:49:59.061Z,22.01
2018-06-18T22:52:26.519Z,21.98
2018-06-18T22:54:54.216Z,21.92
2018-06-18T22:57:21.606Z,21.82
2018-06-18T22:59:49.141Z,21.74
2018-06-18T23:02:16.650Z,21.71
2018-06-18T23:04:44.113Z,21.72
2018-06-18T23:07:11.551Z,21.82
2018-06-18T23:09:38.963Z,21.92
2018-06-18T23:12:06.539Z,21.98
2018-06-18T23:14:34.184Z,21.93
2018-06-18T23:17:01.646Z,21.94
2018-06-18T23:19:29.148Z,21.92
2018-06-18T23:21:56.545Z,21.90
2018-06-18T23:24:23.992Z,21.85
2018-06-18T23:26:51.530Z,21.81
2018-06-18T23:29:18.981Z,21.77
2018-06-18T23:31:46.470Z,21.79
2018-06-18T23:34:13.920Z,21.70
2018-06-18T23:36:41.310Z,21.59
2018-06-18T23:39:08.812Z,21.50
2018-06-18T23:41:36.223Z,21.45
2018-06-18T23:44:03.964Z,21.41
2018-06-18T23:46:31.473Z,21.41
2018-06-18T23:48:58.932Z,21.39
2018-06-18T23:51:26.402Z,21.35
2018-06-18T23:53:53.852Z,21.30
2018-06-18T23:56:21.281Z,21.39
2018-06-18T23:58:48.772Z,21.45
